sensor_id;sensor_type;location;lat;lon;timestamp;temperature;humidity
37240;DHT22;23130;48.760;9.178;2022-08-01T00:02:28;21.60;92.60
37240;DHT22;23130;48.760;9.178;2022-08-01T00:04:54;21.70;92.70
37240;DHT22;23130;48.760;9.178;2022-08-01T00:07:20;21.60;92.80
37240;DHT22;23130;48.760;9.178;2022-08-01T00:09:45;21.70;93.10
37240;DHT22;23130;48.760;9.178;2022-08-01T00:12:11;21.60;92.90
37240;DHT22;23130;48.760;9.178;2022-08-01T00:14:36;21.60;93.10
37240;DHT22;23130;48.760;9.178;2022-08-01T00:17:02;21.50;93.20
37240;DHT22;23130;48.760;9.178;2022-08-01T00:19:28;21.50;93.30
37240;DHT22;23130;48.760;9.178;2022-08-01T00:21:54;21.40;93.50
37240;DHT22;23130;48.760;9.178;2022-08-01T00:24:21;21.40;93.50
37240;DHT22;23130;48.760;9.178;2022-08-01T00:26:46;21.30;93.60
37240;DHT22;23130;48.760;9.178;2022-08-01T00:29:12;21.20;93.80
37240;DHT22;23130;48.760;9.178;2022-08-01T00:31:37;21.20;93.80
37240;DHT22;23130;48.760;9.178;2022-08-01T00:34:03;21.10;94.10
37240;DHT22;23130;48.760;9.178;2022-08-01T00:36:28;21.10;94.30
37240;DHT22;23130;48.760;9.178;2022-08-01T00:38:54;21.00;94.50
37240;DHT22;23130;48.760;9.178;2022-08-01T00:41:20;21.00;94.70
37240;DHT22;23130;48.760;9.178;2022-08-01T00:43:45;21.00;94.80
37240;DHT22;23130;48.760;9.178;2022-08-01T00:46:11;20.90;94.80
37240;DHT22;23130;48.760;9.178;2022-08-01T00:48:36;20.90;95.10
37240;DHT22;23130;48.760;9.178;2022-08-01T00:51:03;20.90;95.30
37240;DHT22;23130;48.760;9.178;2022-08-01T00:53:30;20.90;95.20
37240;DHT22;23130;48.760;9.178;2022-08-01T00:55:56;20.90;95.40
37240;DHT22;23130;48.760;9.178;2022-08-01T00:58:22;20.80;95.70
37240;DHT22;23130;48.760;9.178;2022-08-01T01:00:48;20.80;95.80
37240;DHT22;23130;48.760;9.178;2022-08-01T01:03:14;20.70;95.90
37240;DHT22;23130;48.760;9.178;2022-08-01T01:05:48;20.70;96.20
37240;DHT22;23130;48.760;9.178;2022-08-01T01:08:24;20.60;96.60
37240;DHT22;23130;48.760;9.178;2022-08-01T01:10:58;20.60;96.80
37240;DHT22;23130;48.760;9.178;2022-08-01T01:13:38;20.50;96.90
37240;DHT22;23130;48.760;9.178;2022-08-01T01:16:10;20.50;97.20
37240;DHT22;23130;48.760;9.178;2022-08-01T01:18:40;20.50;97.30
37240;DHT22;23130;48.760;9.178;2022-08-01T01:29:17;20.30;98.50
37240;DHT22;23130;48.760;9.178;2022-08-01T01:31:57;20.30;98.50
37240;DHT22;23130;48.760;9.178;2022-08-01T01:34:25;20.30;99.10
37240;DHT22;23130;48.760;9.178;2022-08-01T01:36:54;20.20;99.20
37240;DHT22;23130;48.760;9.178;2022-08-01T01:39:24;20.10;99.50
37240;DHT22;23130;48.760;9.178;2022-08-01T01:41:51;20.10;99.90
37240;DHT22;23130;48.760;9.178;2022-08-01T01:44:18;20.10;99.90
37240;DHT22;23130;48.760;9.178;2022-08-01T01:46:45;20.00;99.90
37240;DHT22;23130;48.760;9.178;2022-08-01T01:49:11;20.00;99.90
37240;DHT22;23130;48.760;9.178;2022-08-01T01:51:38;20.00;99.90
37240;DHT22;23130;48.760;9.178;2022-08-01T01:54:04;20.00;99.90
37240;DHT22;23130;48.760;9.178;2022-08-01T01:56:31;19.90;99.90
37240;DHT22;23130;48.760;9.178;2022-08-01T01:59:00;19.80;99.90
37240;DHT22;23130;48.760;9.178;2022-08-01T02:01:28;19.80;99.90
37240;DHT22;23130;48.760;9.178;2022-08-01T02:03:56;19.70;99.90
37240;DHT22;23130;48.760;9.178;2022-08-01T02:06:23;19.70;99.90
37240;DHT22;23130;48.760;9.178;2022-08-01T02:08:52;19.60;99.90
37240;DHT22;23130;48.760;9.178;2022-08-01T02:11:19;19.50;99.90
37240;DHT22;23130;48.760;9.178;2022-08-01T02:13:58;19.50;99.90
37240;DHT22;23130;48.760;9.178;2022-08-01T02:16:28;19.50;99.90
37240;DHT22;23130;48.760;9.178;2022-08-01T02:18:54;19.40;99.90
37240;DHT22;23130;48.760;9.178;2022-08-01T02:21:27;19.40;99.90
37240;DHT22;23130;48.760;9.178;2022-08-01T02:23:56;19.40;99.90
37240;DHT22;23130;48.760;9.178;2022-08-01T02:26:26;19.30;99.90
37240;DHT22;23130;48.760;9.178;2022-08-01T02:29:06;19.30;99.90
37240;DHT22;23130;48.760;9.178;2022-08-01T02:31:38;19.20;99.90
37240;DHT22;23130;48.760;9.178;2022-08-01T02:34:07;19.10;99.90
37240;DHT22;23130;48.760;9.178;2022-08-01T02:36:36;19.10;99.90
37240;DHT22;23130;48.760;9.178;2022-08-01T02:39:08;19.10;99.90
37240;DHT22;23130;48.760;9.178;2022-08-01T02:41:38;19.10;99.90
37240;DHT22;23130;48.760;9.178;2022-08-01T02:44:07;19.10;99.90
37240;DHT22;23130;48.760;9.178;2022-08-01T02:46:49;19.00;99.90
37240;DHT22;23130;48.760;9.178;2022-08-01T02:49:16;19.10;99.90
37240;DHT22;23130;48.760;9.178;2022-08-01T02:51:45;19.00;99.90
37240;DHT22;23130;48.760;9.178;2022-08-01T02:54:12;19.00;99.90
37240;DHT22;23130;48.760;9.178;2022-08-01T02:56:39;19.00;99.90
37240;DHT22;23130;48.760;9.178;2022-08-01T02:59:09;18.90;99.90
37240;DHT22;23130;48.760;9.178;2022-08-01T03:01:37;18.80;99.90
37240;DHT22;23130;48.760;9.178;2022-08-01T03:04:05;18.80;99.90
37240;DHT22;23130;48.760;9.178;2022-08-01T03:06:32;18.80;99.90
37240;DHT22;23130;48.760;9.178;2022-08-01T03:09:00;18.80;99.90
37240;DHT22;23130;48.760;9.178;2022-08-01T03:11:27;18.80;99.90
37240;DHT22;23130;48.760;9.178;2022-08-01T03:13:54;18.70;99.90
37240;DHT22;23130;48.760;9.178;2022-08-01T03:16:22;18.60;99.90
37240;DHT22;23130;48.760;9.178;2022-08-01T03:18:51;18.60;99.90
37240;DHT22;23130;48.760;9.178;2022-08-01T03:21:20;18.50;99.90
37240;DHT22;23130;48.760;9.178;2022-08-01T03:23:47;18.50;99.90
37240;DHT22;23130;48.760;9.178;2022-08-01T03:26:15;18.50;99.90
37240;DHT22;23130;48.760;9.178;2022-08-01T03:28:41;18.40;99.90
37240;DHT22;23130;48.760;9.178;2022-08-01T03:31:10;18.50;99.90
37240;DHT22;23130;48.760;9.178;2022-08-01T03:33:35;18.50;99.90
37240;DHT22;23130;48.760;9.178;2022-08-01T03:36:02;18.50;99.90
37240;DHT22;23130;48.760;9.178;2022-08-01T03:38:30;18.40;99.90
37240;DHT22;23130;48.760;9.178;2022-08-01T03:41:11;18.50;99.90
37240;DHT22;23130;48.760;9.178;2022-08-01T03:43:41;18.50;99.90
37240;DHT22;23130;48.760;9.178;2022-08-01T03:46:13;18.50;99.90
37240;DHT22;23130;48.760;9.178;2022-08-01T03:48:44;18.50;99.90
37240;DHT22;23130;48.760;9.178;2022-08-01T03:51:12;18.50;99.90
37240;DHT22;23130;48.760;9.178;2022-08-01T03:53:41;18.50;99.90
37240;DHT22;23130;48.760;9.178;2022-08-01T03:56:08;18.60;99.90
37240;DHT22;23130;48.760;9.178;2022-08-01T03:58:36;18.60;99.90
37240;DHT22;23130;48.760;9.178;2022-08-01T04:01:02;18.60;99.90
37240;DHT22;23130;48.760;9.178;2022-08-01T04:03:28;18.60;99.90
37240;DHT22;23130;48.760;9.178;2022-08-01T04:05:53;18.60;99.90
37240;DHT22;23130;48.760;9.178;2022-08-01T04:08:19;18.60;99.90
37240;DHT22;23130;48.760;9.178;2022-08-01T04:10:44;18.70;99.90
37240;DHT22;23130;48.760;9.178;2022-08-01T04:13:10;18.80;99.90
37240;DHT22;23130;48.760;9.178;2022-08-01T04:15:36;18.80;99.90
37240;DHT22;23130;48.760;9.178;2022-08-01T04:18:01;18.90;99.90
37240;DHT22;23130;48.760;9.178;2022-08-01T04:20:27;19.00;99.90
37240;DHT22;23130;48.760;9.178;2022-08-01T04:22:52;19.00;99.90
37240;DHT22;23130;48.760;9.178;2022-08-01T04:25:28;19.10;99.90
37240;DHT22;23130;48.760;9.178;2022-08-01T04:27:55;19.20;99.90
37240;DHT22;23130;48.760;9.178;2022-08-01T04:30:28;19.30;99.90
37240;DHT22;23130;48.760;9.178;2022-08-01T04:32:57;19.40;99.90
37240;DHT22;23130;48.760;9.178;2022-08-01T04:35:25;19.50;99.90
37240;DHT22;23130;48.760;9.178;2022-08-01T04:37:52;19.60;99.90
37240;DHT22;23130;48.760;9.178;2022-08-01T04:40:19;19.60;99.90
37240;DHT22;23130;48.760;9.178;2022-08-01T04:42:47;19.60;99.90
37240;DHT22;23130;48.760;9.178;2022-08-01T04:45:14;19.70;99.90
37240;DHT22;23130;48.760;9.178;2022-08-01T04:47:41;19.70;99.90
37240;DHT22;23130;48.760;9.178;2022-08-01T04:50:08;19.70;99.90
37240;DHT22;23130;48.760;9.178;2022-08-01T04:52:35;19.70;99.90
37240;DHT22;23130;48.760;9.178;2022-08-01T04:55:01;19.70;99.90
37240;DHT22;23130;48.760;9.178;2022-08-01T04:57:27;19.80;99.90
37240;DHT22;23130;48.760;9.178;2022-08-01T04:59:53;20.40;99.90
37240;DHT22;23130;48.760;9.178;2022-08-01T05:02:23;21.70;99.90
37240;DHT22;23130;48.760;9.178;2022-08-01T05:04:48;23.30;99.90
37240;DHT22;23130;48.760;9.178;2022-08-01T05:07:14;24.50;99.90
37240;DHT22;23130;48.760;9.178;2022-08-01T05:09:41;25.10;99.90
37240;DHT22;23130;48.760;9.178;2022-08-01T05:12:09;25.10;99.90
37240;DHT22;23130;48.760;9.178;2022-08-01T05:14:36;24.80;99.90
37240;DHT22;23130;48.760;9.178;2022-08-01T05:17:03;24.60;99.90
37240;DHT22;23130;48.760;9.178;2022-08-01T05:19:30;24.40;99.90
37240;DHT22;23130;48.760;9.178;2022-08-01T05:21:57;24.70;99.90
37240;DHT22;23130;48.760;9.178;2022-08-01T05:24:23;25.80;99.90
37240;DHT22;23130;48.760;9.178;2022-08-01T05:26:48;27.20;99.90
37240;DHT22;23130;48.760;9.178;2022-08-01T05:29:15;27.80;99.90
37240;DHT22;23130;48.760;9.178;2022-08-01T05:31:40;28.70;99.60
37240;DHT22;23130;48.760;9.178;2022-08-01T05:34:06;29.60;97.30
37240;DHT22;23130;48.760;9.178;2022-08-01T05:36:31;29.70;96.90
37240;DHT22;23130;48.760;9.178;2022-08-01T05:38:57;30.40;95.60
37240;DHT22;23130;48.760;9.178;2022-08-01T05:41:23;30.50;94.70
37240;DHT22;23130;48.760;9.178;2022-08-01T05:43:48;30.50;95.10
37240;DHT22;23130;48.760;9.178;2022-08-01T05:46:14;30.80;93.80
37240;DHT22;23130;48.760;9.178;2022-08-01T05:48:39;30.90;93.80
37240;DHT22;23130;48.760;9.178;2022-08-01T05:51:05;30.90;93.70
37240;DHT22;23130;48.760;9.178;2022-08-01T05:53:31;31.30;93.30
37240;DHT22;23130;48.760;9.178;2022-08-01T05:55:59;31.60;92.50
37240;DHT22;23130;48.760;9.178;2022-08-01T05:58:25;31.90;91.80
37240;DHT22;23130;48.760;9.178;2022-08-01T06:00:51;31.70;92.00
37240;DHT22;23130;48.760;9.178;2022-08-01T06:03:16;32.10;91.70
37240;DHT22;23130;48.760;9.178;2022-08-01T06:05:42;31.80;91.40
37240;DHT22;23130;48.760;9.178;2022-08-01T06:08:08;31.80;91.30
37240;DHT22;23130;48.760;9.178;2022-08-01T06:10:33;31.60;91.20
37240;DHT22;23130;48.760;9.178;2022-08-01T06:12:59;31.70;91.00
37240;DHT22;23130;48.760;9.178;2022-08-01T06:15:28;31.60;91.10
37240;DHT22;23130;48.760;9.178;2022-08-01T06:17:54;31.80;90.90
37240;DHT22;23130;48.760;9.178;2022-08-01T06:20:20;31.50;90.90
37240;DHT22;23130;48.760;9.178;2022-08-01T06:22:46;31.10;91.30
37240;DHT22;23130;48.760;9.178;2022-08-01T06:25:12;30.90;91.70
37240;DHT22;23130;48.760;9.178;2022-08-01T06:27:37;31.10;91.30
37240;DHT22;23130;48.760;9.178;2022-08-01T06:30:04;31.10;91.70
37240;DHT22;23130;48.760;9.178;2022-08-01T06:32:30;31.20;91.30
37240;DHT22;23130;48.760;9.178;2022-08-01T06:34:56;31.20;91.30
37240;DHT22;23130;48.760;9.178;2022-08-01T06:37:22;31.20;91.20
37240;DHT22;23130;48.760;9.178;2022-08-01T06:39:49;30.70;91.70
37240;DHT22;23130;48.760;9.178;2022-08-01T06:42:14;30.20;92.10
37240;DHT22;23130;48.760;9.178;2022-08-01T06:44:41;30.00;92.60
37240;DHT22;23130;48.760;9.178;2022-08-01T06:47:06;29.80;92.70
37240;DHT22;23130;48.760;9.178;2022-08-01T06:49:32;30.30;92.20
37240;DHT22;23130;48.760;9.178;2022-08-01T06:51:58;30.80;91.80
37240;DHT22;23130;48.760;9.178;2022-08-01T06:54:23;30.90;91.70
37240;DHT22;23130;48.760;9.178;2022-08-01T06:56:49;31.00;91.50
37240;DHT22;23130;48.760;9.178;2022-08-01T06:59:14;31.40;91.10
37240;DHT22;23130;48.760;9.178;2022-08-01T07:01:40;31.10;91.40
37240;DHT22;23130;48.760;9.178;2022-08-01T07:04:06;31.40;90.70
37240;DHT22;23130;48.760;9.178;2022-08-01T07:06:32;31.20;90.80
37240;DHT22;23130;48.760;9.178;2022-08-01T07:08:57;31.30;91.30
37240;DHT22;23130;48.760;9.178;2022-08-01T07:11:23;31.40;90.80
37240;DHT22;23130;48.760;9.178;2022-08-01T07:13:49;31.40;91.10
37240;DHT22;23130;48.760;9.178;2022-08-01T07:16:16;31.20;91.20
37240;DHT22;23130;48.760;9.178;2022-08-01T07:18:41;31.90;90.50
37240;DHT22;23130;48.760;9.178;2022-08-01T07:21:07;32.00;90.10
37240;DHT22;23130;48.760;9.178;2022-08-01T07:23:33;31.90;90.00
37240;DHT22;23130;48.760;9.178;2022-08-01T07:25:59;31.70;90.60
37240;DHT22;23130;48.760;9.178;2022-08-01T07:28:27;32.40;89.60
37240;DHT22;23130;48.760;9.178;2022-08-01T07:30:52;31.80;90.20
37240;DHT22;23130;48.760;9.178;2022-08-01T07:33:18;31.10;90.00
37240;DHT22;23130;48.760;9.178;2022-08-01T07:35:46;30.70;90.70
37240;DHT22;23130;48.760;9.178;2022-08-01T07:38:12;30.70;91.00
37240;DHT22;23130;48.760;9.178;2022-08-01T07:40:38;30.70;91.00
37240;DHT22;23130;48.760;9.178;2022-08-01T07:43:03;30.80;90.60
37240;DHT22;23130;48.760;9.178;2022-08-01T07:45:30;30.40;90.70
37240;DHT22;23130;48.760;9.178;2022-08-01T07:47:56;30.00;90.90
37240;DHT22;23130;48.760;9.178;2022-08-01T07:50:21;30.20;91.00
37240;DHT22;23130;48.760;9.178;2022-08-01T07:52:48;30.80;90.90
37240;DHT22;23130;48.760;9.178;2022-08-01T07:55:13;31.70;90.40
37240;DHT22;23130;48.760;9.178;2022-08-01T07:57:39;31.50;90.30
37240;DHT22;23130;48.760;9.178;2022-08-01T08:00:05;31.40;90.30
37240;DHT22;23130;48.760;9.178;2022-08-01T08:02:32;30.90;90.30
37240;DHT22;23130;48.760;9.178;2022-08-01T08:04:57;29.90;90.70
37240;DHT22;23130;48.760;9.178;2022-08-01T08:07:23;29.50;91.30
37240;DHT22;23130;48.760;9.178;2022-08-01T08:09:49;29.50;91.20
37240;DHT22;23130;48.760;9.178;2022-08-01T08:12:14;29.70;91.20
37240;DHT22;23130;48.760;9.178;2022-08-01T08:14:40;30.30;90.80
37240;DHT22;23130;48.760;9.178;2022-08-01T08:17:06;30.80;90.20
37240;DHT22;23130;48.760;9.178;2022-08-01T08:19:32;30.90;90.20
37240;DHT22;23130;48.760;9.178;2022-08-01T08:21:59;30.60;90.80
37240;DHT22;23130;48.760;9.178;2022-08-01T08:24:26;29.80;90.90
37240;DHT22;23130;48.760;9.178;2022-08-01T08:26:57;29.10;91.80
37240;DHT22;23130;48.760;9.178;2022-08-01T08:29:23;28.50;91.90
37240;DHT22;23130;48.760;9.178;2022-08-01T08:31:51;28.00;92.70
37240;DHT22;23130;48.760;9.178;2022-08-01T08:34:17;27.70;93.50
37240;DHT22;23130;48.760;9.178;2022-08-01T08:36:42;27.60;93.80
37240;DHT22;23130;48.760;9.178;2022-08-01T08:39:08;27.60;93.80
37240;DHT22;23130;48.760;9.178;2022-08-01T08:41:35;27.20;94.10
37240;DHT22;23130;48.760;9.178;2022-08-01T08:44:02;27.10;94.80
37240;DHT22;23130;48.760;9.178;2022-08-01T08:46:28;27.10;94.80
37240;DHT22;23130;48.760;9.178;2022-08-01T08:48:55;27.10;95.10
37240;DHT22;23130;48.760;9.178;2022-08-01T08:51:23;27.00;94.80
37240;DHT22;23130;48.760;9.178;2022-08-01T08:53:51;27.20;95.20
37240;DHT22;23130;48.760;9.178;2022-08-01T08:56:19;27.20;94.60
37240;DHT22;23130;48.760;9.178;2022-08-01T08:58:46;27.20;94.70
37240;DHT22;23130;48.760;9.178;2022-08-01T09:01:13;27.50;95.70
37240;DHT22;23130;48.760;9.178;2022-08-01T09:03:39;27.70;95.00
37240;DHT22;23130;48.760;9.178;2022-08-01T09:06:05;27.80;94.60
37240;DHT22;23130;48.760;9.178;2022-08-01T09:08:32;28.00;94.80
37240;DHT22;23130;48.760;9.178;2022-08-01T09:10:58;28.10;94.30
37240;DHT22;23130;48.760;9.178;2022-08-01T09:13:23;27.60;94.50
37240;DHT22;23130;48.760;9.178;2022-08-01T09:15:51;27.20;95.00
37240;DHT22;23130;48.760;9.178;2022-08-01T09:18:30;27.00;95.50
37240;DHT22;23130;48.760;9.178;2022-08-01T09:21:12;26.70;95.70
37240;DHT22;23130;48.760;9.178;2022-08-01T09:23:45;26.90;95.90
37240;DHT22;23130;48.760;9.178;2022-08-01T09:26:16;26.90;96.10
37240;DHT22;23130;48.760;9.178;2022-08-01T09:28:42;27.10;96.70
37240;DHT22;23130;48.760;9.178;2022-08-01T09:31:14;27.40;95.30
37240;DHT22;23130;48.760;9.178;2022-08-01T09:33:59;27.50;95.50
37240;DHT22;23130;48.760;9.178;2022-08-01T09:36:50;27.40;95.10
37240;DHT22;23130;48.760;9.178;2022-08-01T09:39:24;27.30;95.20
37240;DHT22;23130;48.760;9.178;2022-08-01T09:41:50;27.70;95.80
37240;DHT22;23130;48.760;9.178;2022-08-01T09:44:17;27.90;94.80
37240;DHT22;23130;48.760;9.178;2022-08-01T09:46:54;27.60;94.60
37240;DHT22;23130;48.760;9.178;2022-08-01T09:49:31;27.80;94.90
37240;DHT22;23130;48.760;9.178;2022-08-01T09:51:58;27.60;94.80
37240;DHT22;23130;48.760;9.178;2022-08-01T09:54:33;27.10;95.50
37240;DHT22;23130;48.760;9.178;2022-08-01T09:57:13;27.20;95.70
37240;DHT22;23130;48.760;9.178;2022-08-01T09:59:44;27.30;95.90
37240;DHT22;23130;48.760;9.178;2022-08-01T10:02:11;27.10;95.90
37240;DHT22;23130;48.760;9.178;2022-08-01T10:04:46;26.80;96.00
37240;DHT22;23130;48.760;9.178;2022-08-01T10:07:11;26.70;96.10
37240;DHT22;23130;48.760;9.178;2022-08-01T10:09:39;26.90;95.90
37240;DHT22;23130;48.760;9.178;2022-08-01T10:12:05;27.20;96.00
37240;DHT22;23130;48.760;9.178;2022-08-01T10:14:31;27.40;95.70
37240;DHT22;23130;48.760;9.178;2022-08-01T10:17:00;27.60;95.70
37240;DHT22;23130;48.760;9.178;2022-08-01T10:19:28;27.40;95.60
37240;DHT22;23130;48.760;9.178;2022-08-01T10:21:55;27.00;95.40
37240;DHT22;23130;48.760;9.178;2022-08-01T10:24:22;26.80;95.90
37240;DHT22;23130;48.760;9.178;2022-08-01T10:26:53;26.80;96.20
37240;DHT22;23130;48.760;9.178;2022-08-01T10:29:21;26.80;96.40
37240;DHT22;23130;48.760;9.178;2022-08-01T10:31:47;26.80;96.10
37240;DHT22;23130;48.760;9.178;2022-08-01T10:34:14;26.70;96.00
37240;DHT22;23130;48.760;9.178;2022-08-01T10:36:43;26.90;96.20
37240;DHT22;23130;48.760;9.178;2022-08-01T10:39:12;27.20;96.10
37240;DHT22;23130;48.760;9.178;2022-08-01T10:41:39;27.40;95.60
37240;DHT22;23130;48.760;9.178;2022-08-01T10:44:07;27.50;95.30
37240;DHT22;23130;48.760;9.178;2022-08-01T10:46:37;27.70;94.90
37240;DHT22;23130;48.760;9.178;2022-08-01T10:49:11;27.60;94.90
37240;DHT22;23130;48.760;9.178;2022-08-01T10:51:38;27.20;95.00
37240;DHT22;23130;48.760;9.178;2022-08-01T10:54:09;26.80;95.70
37240;DHT22;23130;48.760;9.178;2022-08-01T10:56:46;26.60;96.20
37240;DHT22;23130;48.760;9.178;2022-08-01T10:59:32;26.40;96.60
37240;DHT22;23130;48.760;9.178;2022-08-01T11:02:01;26.20;96.80
37240;DHT22;23130;48.760;9.178;2022-08-01T11:04:44;26.20;97.10
37240;DHT22;23130;48.760;9.178;2022-08-01T11:07:22;26.10;97.10
37240;DHT22;23130;48.760;9.178;2022-08-01T11:10:02;26.30;96.80
37240;DHT22;23130;48.760;9.178;2022-08-01T11:12:41;26.60;96.80
37240;DHT22;23130;48.760;9.178;2022-08-01T11:17:43;27.50;95.40
37240;DHT22;23130;48.760;9.178;2022-08-01T11:25:26;28.30;95.40
37240;DHT22;23130;48.760;9.178;2022-08-01T11:41:24;27.60;94.80
37240;DHT22;23130;48.760;9.178;2022-08-01T11:52:23;27.60;95.00
37240;DHT22;23130;48.760;9.178;2022-08-01T11:59:54;27.80;94.20
37240;DHT22;23130;48.760;9.178;2022-08-01T12:02:29;27.90;94.10
37240;DHT22;23130;48.760;9.178;2022-08-01T12:05:01;27.70;93.90
37240;DHT22;23130;48.760;9.178;2022-08-01T12:07:28;27.70;95.00
37240;DHT22;23130;48.760;9.178;2022-08-01T12:12:24;27.40;94.90
37240;DHT22;23130;48.760;9.178;2022-08-01T12:15:01;27.50;94.10
37240;DHT22;23130;48.760;9.178;2022-08-01T12:17:33;27.40;94.20
37240;DHT22;23130;48.760;9.178;2022-08-01T12:19:59;27.50;94.00
37240;DHT22;23130;48.760;9.178;2022-08-01T12:22:25;27.80;94.10
37240;DHT22;23130;48.760;9.178;2022-08-01T12:24:51;28.30;93.40
37240;DHT22;23130;48.760;9.178;2022-08-01T12:27:28;28.50;93.70
37240;DHT22;23130;48.760;9.178;2022-08-01T12:29:54;28.40;93.10
37240;DHT22;23130;48.760;9.178;2022-08-01T12:32:25;28.40;92.60
37240;DHT22;23130;48.760;9.178;2022-08-01T12:34:52;28.00;92.80
37240;DHT22;23130;48.760;9.178;2022-08-01T12:37:19;27.80;93.20
37240;DHT22;23130;48.760;9.178;2022-08-01T12:39:45;27.60;93.30
37240;DHT22;23130;48.760;9.178;2022-08-01T12:42:12;27.50;93.60
37240;DHT22;23130;48.760;9.178;2022-08-01T12:44:39;27.30;94.10
37240;DHT22;23130;48.760;9.178;2022-08-01T12:47:06;27.10;94.30
37240;DHT22;23130;48.760;9.178;2022-08-01T12:49:36;27.20;94.30
37240;DHT22;23130;48.760;9.178;2022-08-01T12:52:03;27.70;95.00
37240;DHT22;23130;48.760;9.178;2022-08-01T12:54:29;28.00;94.40
37240;DHT22;23130;48.760;9.178;2022-08-01T12:56:55;28.10;93.80
37240;DHT22;23130;48.760;9.178;2022-08-01T12:59:26;28.00;93.60
37240;DHT22;23130;48.760;9.178;2022-08-01T13:01:53;27.80;93.60
37240;DHT22;23130;48.760;9.178;2022-08-01T13:04:20;28.00;93.20
37240;DHT22;23130;48.760;9.178;2022-08-01T13:06:46;28.20;93.50
37240;DHT22;23130;48.760;9.178;2022-08-01T13:09:13;28.60;92.80
37240;DHT22;23130;48.760;9.178;2022-08-01T13:11:42;29.00;92.90
37240;DHT22;23130;48.760;9.178;2022-08-01T13:14:09;29.10;92.20
37240;DHT22;23130;48.760;9.178;2022-08-01T13:16:46;28.80;92.40
37240;DHT22;23130;48.760;9.178;2022-08-01T13:19:12;28.70;92.70
37240;DHT22;23130;48.760;9.178;2022-08-01T13:21:38;28.60;92.80
37240;DHT22;23130;48.760;9.178;2022-08-01T13:24:09;28.40;92.70
37240;DHT22;23130;48.760;9.178;2022-08-01T13:26:48;28.40;93.20
37240;DHT22;23130;48.760;9.178;2022-08-01T13:29:16;28.20;93.40
37240;DHT22;23130;48.760;9.178;2022-08-01T13:31:43;27.90;93.30
37240;DHT22;23130;48.760;9.178;2022-08-01T13:34:10;27.90;93.70
37240;DHT22;23130;48.760;9.178;2022-08-01T13:36:36;28.10;93.70
37240;DHT22;23130;48.760;9.178;2022-08-01T13:39:03;28.20;93.70
37240;DHT22;23130;48.760;9.178;2022-08-01T13:41:47;28.40;93.40
37240;DHT22;23130;48.760;9.178;2022-08-01T13:44:13;28.60;93.50
37240;DHT22;23130;48.760;9.178;2022-08-01T13:46:40;28.70;92.70
37240;DHT22;23130;48.760;9.178;2022-08-01T13:49:07;29.10;92.80
37240;DHT22;23130;48.760;9.178;2022-08-01T13:51:34;29.20;92.50
37240;DHT22;23130;48.760;9.178;2022-08-01T13:54:00;29.30;92.40
37240;DHT22;23130;48.760;9.178;2022-08-01T13:56:27;29.30;92.20
37240;DHT22;23130;48.760;9.178;2022-08-01T13:58:56;29.50;92.30
37240;DHT22;23130;48.760;9.178;2022-08-01T14:01:23;29.60;91.50
37240;DHT22;23130;48.760;9.178;2022-08-01T14:03:49;29.60;91.60
37240;DHT22;23130;48.760;9.178;2022-08-01T14:06:17;29.40;92.30
37240;DHT22;23130;48.760;9.178;2022-08-01T14:08:44;29.70;92.30
37240;DHT22;23130;48.760;9.178;2022-08-01T14:11:09;29.60;91.50
37240;DHT22;23130;48.760;9.178;2022-08-01T14:13:35;29.50;91.90
37240;DHT22;23130;48.760;9.178;2022-08-01T14:16:04;29.20;92.20
37240;DHT22;23130;48.760;9.178;2022-08-01T14:18:30;29.10;92.40
37240;DHT22;23130;48.760;9.178;2022-08-01T14:20:55;28.80;92.10
37240;DHT22;23130;48.760;9.178;2022-08-01T14:23:21;28.70;92.40
37240;DHT22;23130;48.760;9.178;2022-08-01T14:25:46;28.80;92.10
37240;DHT22;23130;48.760;9.178;2022-08-01T14:28:12;29.00;92.00
37240;DHT22;23130;48.760;9.178;2022-08-01T14:30:37;28.90;92.00
37240;DHT22;23130;48.760;9.178;2022-08-01T14:33:04;29.00;92.10
37240;DHT22;23130;48.760;9.178;2022-08-01T14:35:29;28.80;92.00
37240;DHT22;23130;48.760;9.178;2022-08-01T14:37:55;29.00;92.40
37240;DHT22;23130;48.760;9.178;2022-08-01T14:40:21;28.90;92.00
37240;DHT22;23130;48.760;9.178;2022-08-01T14:42:46;29.20;92.30
37240;DHT22;23130;48.760;9.178;2022-08-01T14:45:12;29.40;92.00
37240;DHT22;23130;48.760;9.178;2022-08-01T14:47:39;29.40;91.70
37240;DHT22;23130;48.760;9.178;2022-08-01T14:50:08;29.30;91.70
37240;DHT22;23130;48.760;9.178;2022-08-01T14:52:35;29.40;92.00
37240;DHT22;23130;48.760;9.178;2022-08-01T14:55:02;29.20;92.00
37240;DHT22;23130;48.760;9.178;2022-08-01T14:57:28;29.00;91.90
37240;DHT22;23130;48.760;9.178;2022-08-01T14:59:54;28.80;92.20
37240;DHT22;23130;48.760;9.178;2022-08-01T15:02:20;29.10;92.20
37240;DHT22;23130;48.760;9.178;2022-08-01T15:04:46;29.10;91.90
37240;DHT22;23130;48.760;9.178;2022-08-01T15:07:12;29.10;92.40
37240;DHT22;23130;48.760;9.178;2022-08-01T15:09:38;29.40;91.90
37240;DHT22;23130;48.760;9.178;2022-08-01T15:12:04;29.40;91.60
37240;DHT22;23130;48.760;9.178;2022-08-01T15:14:29;29.60;91.50
37240;DHT22;23130;48.760;9.178;2022-08-01T15:17:24;29.70;91.10
37240;DHT22;23130;48.760;9.178;2022-08-01T15:19:52;29.70;91.30
37240;DHT22;23130;48.760;9.178;2022-08-01T15:22:19;29.40;91.20
37240;DHT22;23130;48.760;9.178;2022-08-01T15:24:46;29.40;91.40
37240;DHT22;23130;48.760;9.178;2022-08-01T15:27:12;29.10;91.00
37240;DHT22;23130;48.760;9.178;2022-08-01T15:29:38;28.80;91.50
37240;DHT22;23130;48.760;9.178;2022-08-01T15:32:05;28.80;91.40
37240;DHT22;23130;48.760;9.178;2022-08-01T15:34:32;28.70;91.30
37240;DHT22;23130;48.760;9.178;2022-08-01T15:36:58;28.50;91.50
37240;DHT22;23130;48.760;9.178;2022-08-01T15:39:24;28.60;91.60
37240;DHT22;23130;48.760;9.178;2022-08-01T15:41:50;28.90;91.50
37240;DHT22;23130;48.760;9.178;2022-08-01T15:44:16;29.00;91.00
37240;DHT22;23130;48.760;9.178;2022-08-01T15:46:46;28.90;91.00
37240;DHT22;23130;48.760;9.178;2022-08-01T15:49:11;29.00;91.20
37240;DHT22;23130;48.760;9.178;2022-08-01T15:51:37;28.90;90.70
37240;DHT22;23130;48.760;9.178;2022-08-01T15:54:02;28.60;90.70
37240;DHT22;23130;48.760;9.178;2022-08-01T15:56:31;28.40;91.00
37240;DHT22;23130;48.760;9.178;2022-08-01T15:58:57;28.30;90.80
37240;DHT22;23130;48.760;9.178;2022-08-01T16:01:23;28.20;90.90
37240;DHT22;23130;48.760;9.178;2022-08-01T16:03:51;28.00;91.00
37240;DHT22;23130;48.760;9.178;2022-08-01T16:06:16;27.80;91.30
37240;DHT22;23130;48.760;9.178;2022-08-01T16:08:42;27.70;91.70
37240;DHT22;23130;48.760;9.178;2022-08-01T16:11:08;27.80;91.40
37240;DHT22;23130;48.760;9.178;2022-08-01T16:13:34;27.80;91.30
37240;DHT22;23130;48.760;9.178;2022-08-01T16:15:59;28.00;91.40
37240;DHT22;23130;48.760;9.178;2022-08-01T16:18:27;28.10;91.50
37240;DHT22;23130;48.760;9.178;2022-08-01T16:20:52;28.20;91.00